Duncan, OK

6:46 PM CST on November 11, 2019 (GMT -0600)
Halliburton

Weather History for KDUC - September, 2019

Change the Weather History Date:

Sunday, September 29, 2019

  Actual Average (KLAW) Record (KLAW)
Temperature  
Mean Temperature 81 °F -  
Max Temperature 89 °F 82 °F 100 °F (1953)
Min Temperature 73 °F 55 °F 36 °F (1916)
Cooling Degree Days 16    
Growing Degree Days 31 (Base 50)    
Moisture  
Dew Point 70 °F    
Average Humidity 72    
Maximum Humidity 88    
Minimum Humidity 55    
Precipitation  
Precipitation 0.00 in - - ()
Sea Level Pressure  
Sea Level Pressure 29.97 in    
Wind  
Wind Speed 13 mph (SSE)    
Max Wind Speed 23 mph    
Max Gust Speed 28 mph    
Visibility 10 miles    
Events      
Averages and records for this station are not official NWS values.
T = Trace of Precipitation, MM = Missing Value Source: NWS Daily Summary

Daily Weather History Graph

Daily Weather History Graph

Search for Another Location

Airport or City:

Astronomy

Sep. 29, 2019 Rise Set
Actual Time 7:24 AM CDT 7:18 PM CDT
Civil Twilight 6:59 AM CDT 7:44 PM CDT
Nautical Twilight 6:30 AM CDT 8:13 PM CDT
Astronomical Twilight 6:01 AM CDT 8:42 PM CDT
Moon 8:16 AM CDT (9/29) 8:22 PM CDT (9/29)
Length of Visible Light 12h 44m
Length of Day
11h 54m
New Moon, 1% of the Moon is Illuminated
Sep 29
New Moon
Oct 5
First Quarter
Oct 13
Full
Oct 21
Last Quarter
Oct 27
New

Hourly Weather History & Observations

Time (CDT) Temp. Heat Index Dew Point Humidity Pressure Visibility Wind Dir Wind Speed Gust Speed Precip Events Conditions
12:15 AM 79.7 °F - 67.6 °F 66% 29.92 in 10.0 mi SSE 13.8 mph 19.6 mph N/A   Clear
12:35 AM 79.2 °F - 67.5 °F 67% 29.93 in 10.0 mi SSE 11.5 mph - N/A   Clear
12:55 AM 78.3 °F - 67.5 °F 69% 29.93 in 10.0 mi SE 10.4 mph - N/A   Clear
1:15 AM 77.7 °F - 67.5 °F 71% 29.93 in 10.0 mi SSE 10.4 mph - N/A   Clear
1:35 AM 77.5 °F - 67.5 °F 71% 29.93 in 10.0 mi SSE 11.5 mph - N/A   Clear
1:55 AM 77.4 °F - 67.3 °F 71% 29.94 in 10.0 mi SSE 9.2 mph - N/A   Clear
2:15 AM 76.5 °F - 67.5 °F 74% 29.94 in 10.0 mi SSE 11.5 mph - N/A   Clear
2:35 AM 76.1 °F - 67.3 °F 74% 29.94 in 10.0 mi SSE 10.4 mph - N/A   Clear
2:55 AM 75.7 °F - 67.5 °F 75% 29.95 in 10.0 mi SSE 10.4 mph - N/A   Clear
3:15 AM 75.7 °F - 67.5 °F 75% 29.96 in 10.0 mi SSE 11.5 mph - N/A   Clear
3:35 AM 75.2 °F - 67.5 °F 77% 29.96 in 10.0 mi SSE 8.1 mph - N/A   Clear
3:55 AM 74.8 °F - 67.6 °F 78% 29.96 in 10.0 mi SSE 9.2 mph - N/A   Clear
4:15 AM 74.7 °F - 67.8 °F 79% 29.96 in 10.0 mi SSE 8.1 mph - N/A   Clear
4:35 AM 74.5 °F - 68.2 °F 81% 29.97 in 10.0 mi SE 8.1 mph - N/A   Clear
4:55 AM 73.9 °F - 68.2 °F 82% 29.97 in 10.0 mi SE 9.2 mph - N/A   Mostly Cloudy
5:15 AM 73.8 °F - 68.4 °F 83% 29.97 in 10.0 mi SE 8.1 mph - N/A   Scattered Clouds
5:35 AM 73.2 °F - 68.5 °F 85% 29.97 in 10.0 mi SE 10.4 mph - N/A   Scattered Clouds
5:55 AM 73.6 °F - 68.9 °F 85% 29.97 in 10.0 mi SSE 11.5 mph - N/A   Clear
6:15 AM 73.8 °F - 69.4 °F 86% 29.97 in 10.0 mi SSE 9.2 mph - N/A   Clear
6:35 AM 73.8 °F - 69.6 °F 87% 29.98 in 10.0 mi SE 9.2 mph - N/A   Clear
6:55 AM 73.6 °F - 69.8 °F 88% 29.99 in 10.0 mi SSE 10.4 mph - N/A   Clear
7:15 AM 73.6 °F - 70.0 °F 88% 29.99 in 10.0 mi SE 11.5 mph - N/A   Clear
7:35 AM 73.8 °F - 70.2 °F 88% 30.00 in 10.0 mi SE 12.7 mph - N/A   Clear
7:55 AM 73.8 °F - 70.2 °F 88% 30.00 in 10.0 mi SE 11.5 mph - N/A   Clear
8:15 AM 74.5 °F - 70.3 °F 87% 30.00 in 10.0 mi SSE 15.0 mph - N/A   Clear
8:35 AM 75.7 °F - 70.7 °F 84% 30.01 in 10.0 mi SSE 13.8 mph - N/A   Clear
8:55 AM 76.5 °F - 71.2 °F 84% 30.01 in 10.0 mi SSE 15.0 mph - N/A   Clear
9:15 AM 77.7 °F - 71.8 °F 82% 30.01 in 10.0 mi SSE 13.8 mph 24.2 mph N/A   Scattered Clouds
9:35 AM 77.9 °F - 72.1 °F 82% 30.02 in 10.0 mi SSE 18.4 mph 24.2 mph N/A   Mostly Cloudy
9:55 AM 79.0 °F - 72.7 °F 81% 30.02 in 10.0 mi SSE 19.6 mph 26.5 mph N/A   Overcast
10:15 AM 80.2 °F 84.6 °F 73.0 °F 79% 30.02 in 10.0 mi South 17.3 mph 25.3 mph N/A   Overcast
10:35 AM 81.0 °F 85.8 °F 73.0 °F 77% 30.03 in 10.0 mi South 19.6 mph 25.3 mph N/A   Overcast
10:55 AM 82.9 °F 89.1 °F 73.6 °F 73% 30.02 in 10.0 mi South 20.7 mph 27.6 mph N/A   Overcast
11:15 AM 82.2 °F 87.6 °F 72.9 °F 73% 30.02 in 10.0 mi South 17.3 mph - N/A   Overcast
11:35 AM 83.1 °F 88.9 °F 73.0 °F 71% 30.02 in 10.0 mi South 17.3 mph - N/A   Overcast
11:55 AM 85.5 °F 92.6 °F 73.6 °F 67% 30.01 in 10.0 mi South 17.3 mph - N/A   Overcast
12:15 PM 86.0 °F 92.6 °F 72.7 °F 64% 30.01 in 10.0 mi South 19.6 mph 27.6 mph N/A   Overcast
12:35 PM 86.0 °F 93.0 °F 73.0 °F 65% 30.00 in 10.0 mi South 19.6 mph 26.5 mph N/A   Overcast
12:55 PM 85.1 °F 91.8 °F 73.2 °F 67% 30.00 in 10.0 mi South 23.0 mph 27.6 mph N/A   Overcast
1:15 PM 86.4 °F 94.2 °F 73.6 °F 66% 29.99 in 10.0 mi South 17.3 mph - N/A   Overcast
1:35 PM 86.0 °F 92.6 °F 72.5 °F 64% 29.99 in 10.0 mi South 20.7 mph 26.5 mph N/A   Overcast
1:55 PM 86.5 °F 93.3 °F 72.5 °F 63% 29.98 in 10.0 mi South 17.3 mph 24.2 mph N/A   Overcast
2:15 PM 86.9 °F 93.3 °F 72.1 °F 61% 29.97 in 10.0 mi South 16.1 mph - N/A   Overcast
2:35 PM 87.6 °F 94.3 °F 72.1 °F 60% 29.96 in 10.0 mi South 18.4 mph 24.2 mph N/A   Overcast
2:55 PM 88.9 °F 96.1 °F 72.1 °F 58% 29.95 in 10.0 mi SSE 19.6 mph 24.2 mph N/A   Overcast
3:15 PM 87.6 °F 94.3 °F 72.3 °F 60% 29.95 in 10.0 mi South 19.6 mph 24.2 mph N/A   Overcast
3:35 PM 88.0 °F 94.7 °F 72.0 °F 59% 29.94 in 10.0 mi SSE 17.3 mph - N/A   Mostly Cloudy
3:55 PM 87.8 °F 93.4 °F 70.9 °F 57% 29.94 in 10.0 mi South 18.4 mph 27.6 mph N/A   Mostly Cloudy
4:15 PM 89.2 °F 95.9 °F 71.4 °F 56% 29.94 in 10.0 mi South 20.7 mph - N/A   Overcast
4:35 PM 88.9 °F 94.7 °F 71.1 °F 55% 29.94 in 10.0 mi South 19.6 mph - N/A   Overcast
4:55 PM 87.8 °F 93.4 °F 70.9 °F 57% 29.94 in 10.0 mi South 15.0 mph - N/A   Overcast
5:15 PM 87.3 °F 92.8 °F 71.1 °F 58% 29.94 in 10.0 mi SSE 16.1 mph - N/A   Overcast
5:35 PM 87.4 °F 93.5 °F 71.4 °F 59% 29.93 in 10.0 mi SSE 16.1 mph - N/A   Overcast
5:55 PM 86.9 °F 92.5 °F 71.1 °F 59% 29.93 in 10.0 mi SSE 12.7 mph - N/A   Overcast
6:15 PM 87.1 °F 92.8 °F 71.4 °F 59% 29.93 in 10.0 mi SSE 15.0 mph - N/A   Overcast
6:35 PM 86.4 °F 92.2 °F 71.6 °F 61% 29.93 in 10.0 mi SE 15.0 mph - N/A   Mostly Cloudy
6:55 PM 85.1 °F 91.5 °F 72.7 °F 66% 29.93 in 10.0 mi ESE 12.7 mph - N/A   Overcast
7:15 PM 83.3 °F 89.0 °F 72.7 °F 70% 29.93 in 10.0 mi SE 9.2 mph - N/A   Mostly Cloudy
7:35 PM 82.4 °F 87.7 °F 72.5 °F 72% 29.93 in 10.0 mi ESE 8.1 mph - N/A   Mostly Cloudy
7:55 PM 81.1 °F 85.6 °F 72.3 °F 74% 29.93 in 10.0 mi ESE 9.2 mph - N/A   Scattered Clouds
8:35 PM 80.8 °F 84.6 °F 71.1 °F 72% 29.94 in 10.0 mi ESE 10.4 mph - N/A   Clear
8:55 PM 81.0 °F 84.7 °F 70.7 °F 71% 29.95 in 10.0 mi SE 13.8 mph - N/A   Clear
9:15 PM 81.7 °F 85.4 °F 70.3 °F 68% 29.96 in 10.0 mi SE 13.8 mph - N/A   Clear
9:35 PM 81.7 °F 85.4 °F 70.2 °F 68% 29.96 in 10.0 mi SE 15.0 mph 21.9 mph N/A   Clear
9:55 PM 81.0 °F 84.6 °F 70.2 °F 70% 29.96 in 10.0 mi SE 15.0 mph - N/A   Clear
10:15 PM 80.2 °F 83.6 °F 70.3 °F 72% 29.97 in 10.0 mi SE 10.4 mph - N/A   Clear
10:35 PM 79.5 °F - 70.2 °F 73% 29.98 in 10.0 mi SE 13.8 mph - N/A   Clear
10:55 PM 79.5 °F - 69.4 °F 71% 29.99 in 10.0 mi SE 13.8 mph 19.6 mph N/A   Clear
11:15 PM 80.2 °F 83.0 °F 68.2 °F 67% 29.99 in 10.0 mi SSE 15.0 mph - N/A   Clear
11:35 PM 80.2 °F 82.7 °F 67.5 °F 65% 29.99 in 10.0 mi SSE 15.0 mph - N/A   Clear
11:55 PM 79.5 °F - 67.1 °F 66% 29.99 in 10.0 mi SSE 13.8 mph - N/A   Clear